sensor_id;sensor_type;location;lat;lon;timestamp;P1;durP1;ratioP1;P2;durP2;ratioP2
43182;SDS011;28802;38.578;-0.066;2022-07-29T00:00:55;6.83;;;5.10;;
43182;SDS011;28802;38.578;-0.066;2022-07-29T00:03:21;8.83;;;6.13;;
43182;SDS011;28802;38.578;-0.066;2022-07-29T00:05:47;10.80;;;5.57;;
43182;SDS011;28802;38.578;-0.066;2022-07-29T00:08:13;8.57;;;5.37;;
43182;SDS011;28802;38.578;-0.066;2022-07-29T00:10:41;7.43;;;5.53;;
43182;SDS011;28802;38.578;-0.066;2022-07-29T00:13:08;9.00;;;6.30;;
43182;SDS011;28802;38.578;-0.066;2022-07-29T00:15:34;12.90;;;6.13;;
43182;SDS011;28802;38.578;-0.066;2022-07-29T00:18:00;7.83;;;5.10;;
43182;SDS011;28802;38.578;-0.066;2022-07-29T00:20:26;8.33;;;5.07;;
43182;SDS011;28802;38.578;-0.066;2022-07-29T00:22:52;6.50;;;5.50;;
43182;SDS011;28802;38.578;-0.066;2022-07-29T00:25:18;15.10;;;5.40;;
43182;SDS011;28802;38.578;-0.066;2022-07-29T00:27:44;11.50;;;5.57;;
43182;SDS011;28802;38.578;-0.066;2022-07-29T00:30:13;11.40;;;6.07;;
43182;SDS011;28802;38.578;-0.066;2022-07-29T00:32:39;11.23;;;5.47;;
43182;SDS011;28802;38.578;-0.066;2022-07-29T00:35:06;7.90;;;5.83;;
43182;SDS011;28802;38.578;-0.066;2022-07-29T00:37:51;10.50;;;6.43;;
43182;SDS011;28802;38.578;-0.066;2022-07-29T00:40:17;10.33;;;5.43;;
43182;SDS011;28802;38.578;-0.066;2022-07-29T00:45:09;8.00;;;5.40;;
43182;SDS011;28802;38.578;-0.066;2022-07-29T00:47:36;13.87;;;5.90;;
43182;SDS011;28802;38.578;-0.066;2022-07-29T00:50:03;8.63;;;5.20;;
43182;SDS011;28802;38.578;-0.066;2022-07-29T00:52:30;12.10;;;5.83;;
43182;SDS011;28802;38.578;-0.066;2022-07-29T00:54:56;7.90;;;5.10;;
43182;SDS011;28802;38.578;-0.066;2022-07-29T00:57:23;13.63;;;6.07;;
43182;SDS011;28802;38.578;-0.066;2022-07-29T00:59:49;12.80;;;5.37;;
43182;SDS011;28802;38.578;-0.066;2022-07-29T01:02:15;10.00;;;6.00;;
43182;SDS011;28802;38.578;-0.066;2022-07-29T01:04:41;8.27;;;5.37;;
43182;SDS011;28802;38.578;-0.066;2022-07-29T01:07:07;6.80;;;5.03;;
43182;SDS011;28802;38.578;-0.066;2022-07-29T01:09:33;13.57;;;5.50;;
43182;SDS011;28802;38.578;-0.066;2022-07-29T01:12:01;8.97;;;6.10;;
43182;SDS011;28802;38.578;-0.066;2022-07-29T01:14:27;13.33;;;5.90;;
43182;SDS011;28802;38.578;-0.066;2022-07-29T01:17:02;11.97;;;6.40;;
43182;SDS011;28802;38.578;-0.066;2022-07-29T01:22:28;11.03;;;6.07;;
43182;SDS011;28802;38.578;-0.066;2022-07-29T01:30:38;7.90;;;5.67;;
43182;SDS011;28802;38.578;-0.066;2022-07-29T01:33:07;12.50;;;6.40;;
43182;SDS011;28802;38.578;-0.066;2022-07-29T01:35:59;14.70;;;7.40;;
43182;SDS011;28802;38.578;-0.066;2022-07-29T01:38:30;7.27;;;5.30;;
43182;SDS011;28802;38.578;-0.066;2022-07-29T01:41:05;12.00;;;5.90;;
43182;SDS011;28802;38.578;-0.066;2022-07-29T01:46:25;10.43;;;5.83;;
43182;SDS011;28802;38.578;-0.066;2022-07-29T01:49:14;10.07;;;5.83;;
43182;SDS011;28802;38.578;-0.066;2022-07-29T01:52:27;9.57;;;6.20;;
43182;SDS011;28802;38.578;-0.066;2022-07-29T01:54:49;9.43;;;6.13;;
43182;SDS011;28802;38.578;-0.066;2022-07-29T01:57:25;8.60;;;6.43;;
43182;SDS011;28802;38.578;-0.066;2022-07-29T01:59:53;16.00;;;7.07;;
43182;SDS011;28802;38.578;-0.066;2022-07-29T02:02:21;7.97;;;5.37;;
43182;SDS011;28802;38.578;-0.066;2022-07-29T02:04:48;11.20;;;6.47;;
43182;SDS011;28802;38.578;-0.066;2022-07-29T02:07:17;11.57;;;5.37;;
43182;SDS011;28802;38.578;-0.066;2022-07-29T02:09:45;10.37;;;6.90;;
43182;SDS011;28802;38.578;-0.066;2022-07-29T02:12:14;13.50;;;6.17;;
43182;SDS011;28802;38.578;-0.066;2022-07-29T02:14:47;9.50;;;5.57;;
43182;SDS011;28802;38.578;-0.066;2022-07-29T02:17:26;11.70;;;6.67;;
43182;SDS011;28802;38.578;-0.066;2022-07-29T02:19:57;9.90;;;5.60;;
43182;SDS011;28802;38.578;-0.066;2022-07-29T02:22:26;16.40;;;5.80;;
43182;SDS011;28802;38.578;-0.066;2022-07-29T02:24:55;9.43;;;6.53;;
43182;SDS011;28802;38.578;-0.066;2022-07-29T02:27:23;11.83;;;6.63;;
43182;SDS011;28802;38.578;-0.066;2022-07-29T02:29:52;11.23;;;6.67;;
43182;SDS011;28802;38.578;-0.066;2022-07-29T02:32:21;10.73;;;6.73;;
43182;SDS011;28802;38.578;-0.066;2022-07-29T02:34:49;11.30;;;6.63;;
43182;SDS011;28802;38.578;-0.066;2022-07-29T02:37:17;13.17;;;6.60;;
43182;SDS011;28802;38.578;-0.066;2022-07-29T02:39:43;13.27;;;7.20;;
43182;SDS011;28802;38.578;-0.066;2022-07-29T02:42:16;9.23;;;6.97;;
43182;SDS011;28802;38.578;-0.066;2022-07-29T02:44:42;12.07;;;6.30;;
43182;SDS011;28802;38.578;-0.066;2022-07-29T02:50:03;9.30;;;6.00;;
43182;SDS011;28802;38.578;-0.066;2022-07-29T02:52:40;10.00;;;5.83;;
43182;SDS011;28802;38.578;-0.066;2022-07-29T02:55:26;14.70;;;8.43;;
43182;SDS011;28802;38.578;-0.066;2022-07-29T03:00:51;8.90;;;6.97;;
43182;SDS011;28802;38.578;-0.066;2022-07-29T03:03:19;10.53;;;6.70;;
43182;SDS011;28802;38.578;-0.066;2022-07-29T03:05:47;11.20;;;8.10;;
43182;SDS011;28802;38.578;-0.066;2022-07-29T03:08:13;14.83;;;8.30;;
43182;SDS011;28802;38.578;-0.066;2022-07-29T03:10:43;10.63;;;7.13;;
43182;SDS011;28802;38.578;-0.066;2022-07-29T03:13:10;12.33;;;7.47;;
43182;SDS011;28802;38.578;-0.066;2022-07-29T03:15:38;10.83;;;7.20;;
43182;SDS011;28802;38.578;-0.066;2022-07-29T03:18:05;10.17;;;7.37;;
43182;SDS011;28802;38.578;-0.066;2022-07-29T03:20:31;9.73;;;6.80;;
43182;SDS011;28802;38.578;-0.066;2022-07-29T03:22:57;17.77;;;9.27;;
43182;SDS011;28802;38.578;-0.066;2022-07-29T03:25:23;14.23;;;8.90;;
43182;SDS011;28802;38.578;-0.066;2022-07-29T03:27:50;8.80;;;7.07;;
43182;SDS011;28802;38.578;-0.066;2022-07-29T03:30:16;9.57;;;6.30;;
43182;SDS011;28802;38.578;-0.066;2022-07-29T03:32:42;12.17;;;7.43;;
43182;SDS011;28802;38.578;-0.066;2022-07-29T03:35:08;16.80;;;8.60;;
43182;SDS011;28802;38.578;-0.066;2022-07-29T03:37:34;8.53;;;7.20;;
43182;SDS011;28802;38.578;-0.066;2022-07-29T03:40:03;7.67;;;6.93;;
43182;SDS011;28802;38.578;-0.066;2022-07-29T03:42:32;10.03;;;6.57;;
43182;SDS011;28802;38.578;-0.066;2022-07-29T03:45:05;11.17;;;6.10;;
43182;SDS011;28802;38.578;-0.066;2022-07-29T03:47:34;9.27;;;6.90;;
43182;SDS011;28802;38.578;-0.066;2022-07-29T03:50:07;11.70;;;7.00;;
43182;SDS011;28802;38.578;-0.066;2022-07-29T03:52:37;13.53;;;6.43;;
43182;SDS011;28802;38.578;-0.066;2022-07-29T03:55:03;10.80;;;5.87;;
43182;SDS011;28802;38.578;-0.066;2022-07-29T03:57:30;10.60;;;7.00;;
43182;SDS011;28802;38.578;-0.066;2022-07-29T03:59:57;9.93;;;7.60;;
43182;SDS011;28802;38.578;-0.066;2022-07-29T04:02:23;8.90;;;6.97;;
43182;SDS011;28802;38.578;-0.066;2022-07-29T04:04:51;10.90;;;6.30;;
43182;SDS011;28802;38.578;-0.066;2022-07-29T04:07:17;8.53;;;6.30;;
43182;SDS011;28802;38.578;-0.066;2022-07-29T04:09:43;8.07;;;6.50;;
43182;SDS011;28802;38.578;-0.066;2022-07-29T04:12:09;13.10;;;7.07;;
43182;SDS011;28802;38.578;-0.066;2022-07-29T04:14:35;9.73;;;6.57;;
43182;SDS011;28802;38.578;-0.066;2022-07-29T04:17:02;10.53;;;7.17;;
43182;SDS011;28802;38.578;-0.066;2022-07-29T04:19:29;8.77;;;6.23;;
43182;SDS011;28802;38.578;-0.066;2022-07-29T04:21:57;10.70;;;7.03;;
43182;SDS011;28802;38.578;-0.066;2022-07-29T04:24:23;9.20;;;6.73;;
43182;SDS011;28802;38.578;-0.066;2022-07-29T04:26:49;11.67;;;7.37;;
43182;SDS011;28802;38.578;-0.066;2022-07-29T04:29:16;9.60;;;7.00;;
43182;SDS011;28802;38.578;-0.066;2022-07-29T04:31:42;16.63;;;6.70;;
43182;SDS011;28802;38.578;-0.066;2022-07-29T04:34:08;12.30;;;7.20;;
43182;SDS011;28802;38.578;-0.066;2022-07-29T04:36:35;13.13;;;7.10;;
43182;SDS011;28802;38.578;-0.066;2022-07-29T04:39:01;16.50;;;6.70;;
43182;SDS011;28802;38.578;-0.066;2022-07-29T04:41:27;8.17;;;6.47;;
43182;SDS011;28802;38.578;-0.066;2022-07-29T04:43:54;13.43;;;7.37;;
43182;SDS011;28802;38.578;-0.066;2022-07-29T04:46:20;13.27;;;7.33;;
43182;SDS011;28802;38.578;-0.066;2022-07-29T04:48:46;12.57;;;6.80;;
43182;SDS011;28802;38.578;-0.066;2022-07-29T04:51:13;9.77;;;6.80;;
43182;SDS011;28802;38.578;-0.066;2022-07-29T04:53:42;8.20;;;6.30;;
43182;SDS011;28802;38.578;-0.066;2022-07-29T04:56:08;13.48;;;6.90;;
43182;SDS011;28802;38.578;-0.066;2022-07-29T04:58:34;8.57;;;6.83;;
43182;SDS011;28802;38.578;-0.066;2022-07-29T05:01:01;9.77;;;6.10;;
43182;SDS011;28802;38.578;-0.066;2022-07-29T05:03:27;11.00;;;8.10;;
43182;SDS011;28802;38.578;-0.066;2022-07-29T05:05:52;11.93;;;7.00;;
43182;SDS011;28802;38.578;-0.066;2022-07-29T05:08:18;18.90;;;7.60;;
43182;SDS011;28802;38.578;-0.066;2022-07-29T05:10:44;8.60;;;6.20;;
43182;SDS011;28802;38.578;-0.066;2022-07-29T05:13:11;8.67;;;6.40;;
43182;SDS011;28802;38.578;-0.066;2022-07-29T05:15:37;10.57;;;7.17;;
43182;SDS011;28802;38.578;-0.066;2022-07-29T05:18:03;10.13;;;6.53;;
43182;SDS011;28802;38.578;-0.066;2022-07-29T05:20:30;9.97;;;6.70;;
43182;SDS011;28802;38.578;-0.066;2022-07-29T05:22:57;9.53;;;7.37;;
43182;SDS011;28802;38.578;-0.066;2022-07-29T05:25:24;12.23;;;6.77;;
43182;SDS011;28802;38.578;-0.066;2022-07-29T05:27:50;13.57;;;7.03;;
43182;SDS011;28802;38.578;-0.066;2022-07-29T05:30:17;12.37;;;6.80;;
43182;SDS011;28802;38.578;-0.066;2022-07-29T05:32:43;12.63;;;6.37;;
43182;SDS011;28802;38.578;-0.066;2022-07-29T05:35:09;13.33;;;6.70;;
43182;SDS011;28802;38.578;-0.066;2022-07-29T05:37:35;12.53;;;6.50;;
43182;SDS011;28802;38.578;-0.066;2022-07-29T05:40:01;7.80;;;6.13;;
43182;SDS011;28802;38.578;-0.066;2022-07-29T05:42:27;13.10;;;6.70;;
43182;SDS011;28802;38.578;-0.066;2022-07-29T05:44:54;12.13;;;6.70;;
43182;SDS011;28802;38.578;-0.066;2022-07-29T05:47:20;14.07;;;6.50;;
43182;SDS011;28802;38.578;-0.066;2022-07-29T05:49:46;16.23;;;6.43;;
43182;SDS011;28802;38.578;-0.066;2022-07-29T05:52:12;8.33;;;6.00;;
43182;SDS011;28802;38.578;-0.066;2022-07-29T05:54:39;15.40;;;7.37;;
43182;SDS011;28802;38.578;-0.066;2022-07-29T05:57:05;10.33;;;6.10;;
43182;SDS011;28802;38.578;-0.066;2022-07-29T05:59:34;11.73;;;6.23;;
43182;SDS011;28802;38.578;-0.066;2022-07-29T06:02:01;12.73;;;6.50;;
43182;SDS011;28802;38.578;-0.066;2022-07-29T06:04:27;13.07;;;6.30;;
43182;SDS011;28802;38.578;-0.066;2022-07-29T06:06:53;9.33;;;5.77;;
43182;SDS011;28802;38.578;-0.066;2022-07-29T06:09:19;10.20;;;6.53;;
43182;SDS011;28802;38.578;-0.066;2022-07-29T06:11:45;12.50;;;6.40;;
43182;SDS011;28802;38.578;-0.066;2022-07-29T06:14:10;15.00;;;6.30;;
43182;SDS011;28802;38.578;-0.066;2022-07-29T06:16:36;8.00;;;5.87;;
43182;SDS011;28802;38.578;-0.066;2022-07-29T06:19:02;12.03;;;6.10;;
43182;SDS011;28802;38.578;-0.066;2022-07-29T06:21:29;11.00;;;6.90;;
43182;SDS011;28802;38.578;-0.066;2022-07-29T06:23:55;9.00;;;6.03;;
43182;SDS011;28802;38.578;-0.066;2022-07-29T06:26:21;9.43;;;6.70;;
43182;SDS011;28802;38.578;-0.066;2022-07-29T06:28:47;13.07;;;6.53;;
43182;SDS011;28802;38.578;-0.066;2022-07-29T06:31:13;14.20;;;6.87;;
43182;SDS011;28802;38.578;-0.066;2022-07-29T06:33:38;8.50;;;6.00;;
43182;SDS011;28802;38.578;-0.066;2022-07-29T06:36:05;15.37;;;6.50;;
43182;SDS011;28802;38.578;-0.066;2022-07-29T06:38:32;12.53;;;6.80;;
43182;SDS011;28802;38.578;-0.066;2022-07-29T06:40:58;17.23;;;8.00;;
43182;SDS011;28802;38.578;-0.066;2022-07-29T06:43:32;13.67;;;6.87;;
43182;SDS011;28802;38.578;-0.066;2022-07-29T06:46:12;9.53;;;5.30;;
43182;SDS011;28802;38.578;-0.066;2022-07-29T06:48:40;11.97;;;6.10;;
43182;SDS011;28802;38.578;-0.066;2022-07-29T06:51:07;13.10;;;6.43;;
43182;SDS011;28802;38.578;-0.066;2022-07-29T06:53:34;11.90;;;6.57;;
43182;SDS011;28802;38.578;-0.066;2022-07-29T06:56:01;12.17;;;6.67;;
43182;SDS011;28802;38.578;-0.066;2022-07-29T06:58:28;11.27;;;6.63;;
43182;SDS011;28802;38.578;-0.066;2022-07-29T07:00:58;11.90;;;6.87;;
43182;SDS011;28802;38.578;-0.066;2022-07-29T07:03:27;13.30;;;7.30;;
43182;SDS011;28802;38.578;-0.066;2022-07-29T07:05:53;12.50;;;6.60;;
43182;SDS011;28802;38.578;-0.066;2022-07-29T07:08:20;11.33;;;7.10;;
43182;SDS011;28802;38.578;-0.066;2022-07-29T07:10:47;12.77;;;5.93;;
43182;SDS011;28802;38.578;-0.066;2022-07-29T07:13:13;10.30;;;5.90;;
43182;SDS011;28802;38.578;-0.066;2022-07-29T07:15:39;14.27;;;7.40;;
43182;SDS011;28802;38.578;-0.066;2022-07-29T07:18:06;41.17;;;9.67;;
43182;SDS011;28802;38.578;-0.066;2022-07-29T07:20:35;11.20;;;5.43;;
43182;SDS011;28802;38.578;-0.066;2022-07-29T07:23:01;12.60;;;5.93;;
43182;SDS011;28802;38.578;-0.066;2022-07-29T07:25:27;8.73;;;5.33;;
43182;SDS011;28802;38.578;-0.066;2022-07-29T07:27:53;13.93;;;6.33;;
43182;SDS011;28802;38.578;-0.066;2022-07-29T07:30:19;10.10;;;5.67;;
43182;SDS011;28802;38.578;-0.066;2022-07-29T07:32:45;12.93;;;6.30;;
43182;SDS011;28802;38.578;-0.066;2022-07-29T07:35:11;8.40;;;5.60;;
43182;SDS011;28802;38.578;-0.066;2022-07-29T07:37:37;9.37;;;5.37;;
43182;SDS011;28802;38.578;-0.066;2022-07-29T07:40:05;18.10;;;5.57;;
43182;SDS011;28802;38.578;-0.066;2022-07-29T07:42:33;10.30;;;5.40;;
43182;SDS011;28802;38.578;-0.066;2022-07-29T07:44:59;22.23;;;6.70;;
43182;SDS011;28802;38.578;-0.066;2022-07-29T07:47:25;10.43;;;4.17;;
43182;SDS011;28802;38.578;-0.066;2022-07-29T07:49:51;8.87;;;5.50;;
43182;SDS011;28802;38.578;-0.066;2022-07-29T07:52:18;13.13;;;4.17;;
43182;SDS011;28802;38.578;-0.066;2022-07-29T07:54:45;16.70;;;5.93;;
43182;SDS011;28802;38.578;-0.066;2022-07-29T07:57:11;12.40;;;4.87;;
43182;SDS011;28802;38.578;-0.066;2022-07-29T07:59:38;13.70;;;5.77;;
43182;SDS011;28802;38.578;-0.066;2022-07-29T08:02:04;7.67;;;3.43;;
43182;SDS011;28802;38.578;-0.066;2022-07-29T08:04:30;9.40;;;4.57;;
43182;SDS011;28802;38.578;-0.066;2022-07-29T08:06:57;8.77;;;4.23;;
43182;SDS011;28802;38.578;-0.066;2022-07-29T08:09:24;16.37;;;5.50;;
43182;SDS011;28802;38.578;-0.066;2022-07-29T08:11:51;16.23;;;5.43;;
43182;SDS011;28802;38.578;-0.066;2022-07-29T08:14:17;16.80;;;5.00;;
43182;SDS011;28802;38.578;-0.066;2022-07-29T08:16:43;8.57;;;3.90;;
43182;SDS011;28802;38.578;-0.066;2022-07-29T08:19:09;8.20;;;4.00;;
43182;SDS011;28802;38.578;-0.066;2022-07-29T08:21:35;10.50;;;3.90;;
43182;SDS011;28802;38.578;-0.066;2022-07-29T08:24:02;13.83;;;5.10;;
43182;SDS011;28802;38.578;-0.066;2022-07-29T08:26:47;11.07;;;3.90;;
43182;SDS011;28802;38.578;-0.066;2022-07-29T08:29:13;8.30;;;4.10;;
43182;SDS011;28802;38.578;-0.066;2022-07-29T08:31:40;16.10;;;4.27;;
43182;SDS011;28802;38.578;-0.066;2022-07-29T08:34:06;15.10;;;4.03;;
43182;SDS011;28802;38.578;-0.066;2022-07-29T08:36:32;7.93;;;3.57;;
43182;SDS011;28802;38.578;-0.066;2022-07-29T08:38:58;8.90;;;3.83;;
43182;SDS011;28802;38.578;-0.066;2022-07-29T08:41:25;16.83;;;4.57;;
43182;SDS011;28802;38.578;-0.066;2022-07-29T08:43:52;10.70;;;3.80;;
43182;SDS011;28802;38.578;-0.066;2022-07-29T08:46:18;16.10;;;4.57;;
43182;SDS011;28802;38.578;-0.066;2022-07-29T08:48:45;13.20;;;4.03;;
43182;SDS011;28802;38.578;-0.066;2022-07-29T08:51:16;6.93;;;3.83;;
43182;SDS011;28802;38.578;-0.066;2022-07-29T08:53:44;9.07;;;4.03;;
43182;SDS011;28802;38.578;-0.066;2022-07-29T08:56:16;12.07;;;4.00;;
43182;SDS011;28802;38.578;-0.066;2022-07-29T08:58:44;8.97;;;3.63;;
43182;SDS011;28802;38.578;-0.066;2022-07-29T09:01:12;13.30;;;4.10;;
43182;SDS011;28802;38.578;-0.066;2022-07-29T09:03:41;9.27;;;3.37;;
43182;SDS011;28802;38.578;-0.066;2022-07-29T09:06:12;11.17;;;3.73;;
43182;SDS011;28802;38.578;-0.066;2022-07-29T09:08:40;7.33;;;3.67;;
43182;SDS011;28802;38.578;-0.066;2022-07-29T09:11:06;9.00;;;3.23;;
43182;SDS011;28802;38.578;-0.066;2022-07-29T09:13:32;10.80;;;3.93;;
43182;SDS011;28802;38.578;-0.066;2022-07-29T09:15:59;9.00;;;3.33;;
43182;SDS011;28802;38.578;-0.066;2022-07-29T09:18:35;7.10;;;3.60;;
43182;SDS011;28802;38.578;-0.066;2022-07-29T09:21:06;15.80;;;3.70;;
43182;SDS011;28802;38.578;-0.066;2022-07-29T09:24:00;12.07;;;4.30;;
43182;SDS011;28802;38.578;-0.066;2022-07-29T09:26:37;7.80;;;4.10;;
43182;SDS011;28802;38.578;-0.066;2022-07-29T09:29:09;6.97;;;3.63;;
43182;SDS011;28802;38.578;-0.066;2022-07-29T09:31:46;7.17;;;4.27;;
43182;SDS011;28802;38.578;-0.066;2022-07-29T09:34:14;9.50;;;3.83;;
43182;SDS011;28802;38.578;-0.066;2022-07-29T09:36:43;12.30;;;3.27;;
43182;SDS011;28802;38.578;-0.066;2022-07-29T09:39:11;8.90;;;3.50;;
43182;SDS011;28802;38.578;-0.066;2022-07-29T09:41:45;9.63;;;4.20;;
43182;SDS011;28802;38.578;-0.066;2022-07-29T09:44:20;9.17;;;3.17;;
43182;SDS011;28802;38.578;-0.066;2022-07-29T09:47:00;10.30;;;3.60;;
43182;SDS011;28802;38.578;-0.066;2022-07-29T09:49:33;12.43;;;3.90;;
43182;SDS011;28802;38.578;-0.066;2022-07-29T09:52:05;14.23;;;3.80;;
43182;SDS011;28802;38.578;-0.066;2022-07-29T09:54:33;9.03;;;3.30;;
43182;SDS011;28802;38.578;-0.066;2022-07-29T09:57:04;13.23;;;3.53;;
43182;SDS011;28802;38.578;-0.066;2022-07-29T09:59:38;7.50;;;3.73;;
43182;SDS011;28802;38.578;-0.066;2022-07-29T10:02:13;8.27;;;3.70;;
43182;SDS011;28802;38.578;-0.066;2022-07-29T10:04:40;17.60;;;3.93;;
43182;SDS011;28802;38.578;-0.066;2022-07-29T10:07:06;12.47;;;3.73;;
43182;SDS011;28802;38.578;-0.066;2022-07-29T10:09:33;15.40;;;3.80;;
43182;SDS011;28802;38.578;-0.066;2022-07-29T10:12:07;11.57;;;4.40;;
43182;SDS011;28802;38.578;-0.066;2022-07-29T10:14:40;9.93;;;4.10;;
43182;SDS011;28802;38.578;-0.066;2022-07-29T10:17:07;4.30;;;2.80;;
43182;SDS011;28802;38.578;-0.066;2022-07-29T10:19:34;6.10;;;3.03;;
43182;SDS011;28802;38.578;-0.066;2022-07-29T10:22:02;21.63;;;3.50;;
43182;SDS011;28802;38.578;-0.066;2022-07-29T10:24:31;12.50;;;4.07;;
43182;SDS011;28802;38.578;-0.066;2022-07-29T10:26:58;10.87;;;3.73;;
43182;SDS011;28802;38.578;-0.066;2022-07-29T10:29:27;11.30;;;3.60;;
43182;SDS011;28802;38.578;-0.066;2022-07-29T10:35:12;11.87;;;3.63;;
43182;SDS011;28802;38.578;-0.066;2022-07-29T10:43:48;9.70;;;3.57;;
43182;SDS011;28802;38.578;-0.066;2022-07-29T10:46:15;6.63;;;2.93;;
43182;SDS011;28802;38.578;-0.066;2022-07-29T10:49:23;8.27;;;3.60;;
43182;SDS011;28802;38.578;-0.066;2022-07-29T10:57:37;11.07;;;3.50;;
43182;SDS011;28802;38.578;-0.066;2022-07-29T11:07:34;8.30;;;3.10;;
43182;SDS011;28802;38.578;-0.066;2022-07-29T11:15:15;7.90;;;3.03;;
43182;SDS011;28802;38.578;-0.066;2022-07-29T11:28:52;13.10;;;3.30;;
43182;SDS011;28802;38.578;-0.066;2022-07-29T11:47:25;9.70;;;2.80;;
43182;SDS011;28802;38.578;-0.066;2022-07-29T11:49:52;13.67;;;3.77;;
43182;SDS011;28802;38.578;-0.066;2022-07-29T11:52:19;12.47;;;3.43;;
43182;SDS011;28802;38.578;-0.066;2022-07-29T11:54:50;13.43;;;3.80;;
43182;SDS011;28802;38.578;-0.066;2022-07-29T11:57:17;10.77;;;3.13;;
43182;SDS011;28802;38.578;-0.066;2022-07-29T11:59:45;7.10;;;2.43;;
43182;SDS011;28802;38.578;-0.066;2022-07-29T12:02:13;6.30;;;2.20;;
43182;SDS011;28802;38.578;-0.066;2022-07-29T12:04:50;11.53;;;2.93;;
43182;SDS011;28802;38.578;-0.066;2022-07-29T12:07:17;14.40;;;3.20;;
43182;SDS011;28802;38.578;-0.066;2022-07-29T12:09:52;12.20;;;3.40;;
43182;SDS011;28802;38.578;-0.066;2022-07-29T12:12:19;7.70;;;2.63;;
43182;SDS011;28802;38.578;-0.066;2022-07-29T12:14:45;12.87;;;3.77;;
43182;SDS011;28802;38.578;-0.066;2022-07-29T12:19:57;5.07;;;2.33;;
43182;SDS011;28802;38.578;-0.066;2022-07-29T12:22:28;9.63;;;2.90;;
43182;SDS011;28802;38.578;-0.066;2022-07-29T12:24:54;7.47;;;2.10;;
43182;SDS011;28802;38.578;-0.066;2022-07-29T12:27:25;10.70;;;2.47;;
43182;SDS011;28802;38.578;-0.066;2022-07-29T12:29:58;13.40;;;3.60;;
43182;SDS011;28802;38.578;-0.066;2022-07-29T12:32:33;14.00;;;2.27;;
43182;SDS011;28802;38.578;-0.066;2022-07-29T12:35:18;10.40;;;2.53;;
43182;SDS011;28802;38.578;-0.066;2022-07-29T12:37:46;10.50;;;2.70;;
43182;SDS011;28802;38.578;-0.066;2022-07-29T12:40:16;10.50;;;2.97;;
43182;SDS011;28802;38.578;-0.066;2022-07-29T12:43:17;13.10;;;2.83;;
43182;SDS011;28802;38.578;-0.066;2022-07-29T12:45:41;6.13;;;2.50;;
43182;SDS011;28802;38.578;-0.066;2022-07-29T12:48:09;7.37;;;2.17;;
43182;SDS011;28802;38.578;-0.066;2022-07-29T12:50:36;12.57;;;2.80;;
43182;SDS011;28802;38.578;-0.066;2022-07-29T12:53:18;9.73;;;2.70;;
43182;SDS011;28802;38.578;-0.066;2022-07-29T12:55:46;14.80;;;2.50;;
43182;SDS011;28802;38.578;-0.066;2022-07-29T12:58:25;8.73;;;2.63;;
43182;SDS011;28802;38.578;-0.066;2022-07-29T13:01:20;15.93;;;3.50;;
43182;SDS011;28802;38.578;-0.066;2022-07-29T13:03:53;8.50;;;2.27;;
43182;SDS011;28802;38.578;-0.066;2022-07-29T13:11:48;6.47;;;2.57;;
43182;SDS011;28802;38.578;-0.066;2022-07-29T13:14:32;12.43;;;2.97;;
43182;SDS011;28802;38.578;-0.066;2022-07-29T13:19:42;11.47;;;2.80;;
43182;SDS011;28802;38.578;-0.066;2022-07-29T13:22:13;16.10;;;2.40;;
43182;SDS011;28802;38.578;-0.066;2022-07-29T13:24:52;12.20;;;3.83;;
43182;SDS011;28802;38.578;-0.066;2022-07-29T13:27:22;11.57;;;2.87;;
43182;SDS011;28802;38.578;-0.066;2022-07-29T13:29:49;12.53;;;2.33;;
43182;SDS011;28802;38.578;-0.066;2022-07-29T13:32:24;6.87;;;2.27;;
43182;SDS011;28802;38.578;-0.066;2022-07-29T13:35:07;10.00;;;2.93;;
43182;SDS011;28802;38.578;-0.066;2022-07-29T13:37:34;10.07;;;2.67;;
43182;SDS011;28802;38.578;-0.066;2022-07-29T13:40:03;13.47;;;2.77;;
43182;SDS011;28802;38.578;-0.066;2022-07-29T13:42:31;7.83;;;2.13;;
43182;SDS011;28802;38.578;-0.066;2022-07-29T13:44:58;8.60;;;2.73;;
43182;SDS011;28802;38.578;-0.066;2022-07-29T13:47:24;8.97;;;2.27;;
43182;SDS011;28802;38.578;-0.066;2022-07-29T13:49:50;8.20;;;2.37;;
43182;SDS011;28802;38.578;-0.066;2022-07-29T13:52:16;15.97;;;3.63;;
43182;SDS011;28802;38.578;-0.066;2022-07-29T13:54:43;13.40;;;2.70;;
43182;SDS011;28802;38.578;-0.066;2022-07-29T13:57:09;20.07;;;3.43;;
43182;SDS011;28802;38.578;-0.066;2022-07-29T13:59:36;10.27;;;2.33;;
43182;SDS011;28802;38.578;-0.066;2022-07-29T14:02:02;18.10;;;3.03;;
43182;SDS011;28802;38.578;-0.066;2022-07-29T14:04:28;11.23;;;2.77;;
43182;SDS011;28802;38.578;-0.066;2022-07-29T14:06:54;14.10;;;4.13;;
43182;SDS011;28802;38.578;-0.066;2022-07-29T14:09:20;6.67;;;2.40;;
43182;SDS011;28802;38.578;-0.066;2022-07-29T14:11:49;13.93;;;3.40;;
43182;SDS011;28802;38.578;-0.066;2022-07-29T14:14:21;12.07;;;3.43;;
43182;SDS011;28802;38.578;-0.066;2022-07-29T14:16:53;9.80;;;2.60;;
43182;SDS011;28802;38.578;-0.066;2022-07-29T14:22:41;7.90;;;2.47;;
43182;SDS011;28802;38.578;-0.066;2022-07-29T14:25:07;12.87;;;2.93;;
43182;SDS011;28802;38.578;-0.066;2022-07-29T14:27:33;10.53;;;2.73;;
43182;SDS011;28802;38.578;-0.066;2022-07-29T14:29:59;10.80;;;3.30;;
43182;SDS011;28802;38.578;-0.066;2022-07-29T14:32:25;15.10;;;3.77;;
43182;SDS011;28802;38.578;-0.066;2022-07-29T14:34:51;9.30;;;3.53;;
43182;SDS011;28802;38.578;-0.066;2022-07-29T14:37:17;17.20;;;3.90;;
43182;SDS011;28802;38.578;-0.066;2022-07-29T14:39:43;16.80;;;4.27;;
43182;SDS011;28802;38.578;-0.066;2022-07-29T14:42:10;20.87;;;3.73;;
43182;SDS011;28802;38.578;-0.066;2022-07-29T14:44:43;9.50;;;3.17;;
43182;SDS011;28802;38.578;-0.066;2022-07-29T14:47:09;11.90;;;3.50;;
43182;SDS011;28802;38.578;-0.066;2022-07-29T14:49:35;15.03;;;3.30;;
43182;SDS011;28802;38.578;-0.066;2022-07-29T14:52:01;12.43;;;4.10;;
43182;SDS011;28802;38.578;-0.066;2022-07-29T14:54:27;18.27;;;4.00;;
43182;SDS011;28802;38.578;-0.066;2022-07-29T14:56:56;17.10;;;4.37;;
43182;SDS011;28802;38.578;-0.066;2022-07-29T14:59:22;17.73;;;3.47;;
43182;SDS011;28802;38.578;-0.066;2022-07-29T15:01:48;13.30;;;3.70;;
43182;SDS011;28802;38.578;-0.066;2022-07-29T15:04:14;12.80;;;3.37;;
43182;SDS011;28802;38.578;-0.066;2022-07-29T15:06:40;9.83;;;2.80;;
43182;SDS011;28802;38.578;-0.066;2022-07-29T15:09:06;11.73;;;3.30;;
43182;SDS011;28802;38.578;-0.066;2022-07-29T15:11:32;9.10;;;3.07;;
43182;SDS011;28802;38.578;-0.066;2022-07-29T15:13:58;18.00;;;3.60;;
43182;SDS011;28802;38.578;-0.066;2022-07-29T15:16:24;7.80;;;3.23;;
43182;SDS011;28802;38.578;-0.066;2022-07-29T15:18:50;12.30;;;3.80;;
43182;SDS011;28802;38.578;-0.066;2022-07-29T15:21:16;14.03;;;3.40;;
43182;SDS011;28802;38.578;-0.066;2022-07-29T15:23:45;17.90;;;4.40;;
43182;SDS011;28802;38.578;-0.066;2022-07-29T15:26:11;18.10;;;5.70;;
43182;SDS011;28802;38.578;-0.066;2022-07-29T15:28:37;10.13;;;3.17;;
43182;SDS011;28802;38.578;-0.066;2022-07-29T15:31:03;14.40;;;3.30;;
43182;SDS011;28802;38.578;-0.066;2022-07-29T15:33:29;11.17;;;3.60;;
43182;SDS011;28802;38.578;-0.066;2022-07-29T15:35:55;9.50;;;3.80;;
43182;SDS011;28802;38.578;-0.066;2022-07-29T15:38:22;13.43;;;4.27;;
43182;SDS011;28802;38.578;-0.066;2022-07-29T15:40:48;17.87;;;3.73;;
43182;SDS011;28802;38.578;-0.066;2022-07-29T15:43:13;15.63;;;4.27;;
43182;SDS011;28802;38.578;-0.066;2022-07-29T15:45:40;10.67;;;3.63;;
43182;SDS011;28802;38.578;-0.066;2022-07-29T15:48:27;11.70;;;4.03;;
43182;SDS011;28802;38.578;-0.066;2022-07-29T15:50:53;12.23;;;3.40;;
43182;SDS011;28802;38.578;-0.066;2022-07-29T15:53:19;13.90;;;3.30;;
43182;SDS011;28802;38.578;-0.066;2022-07-29T15:55:45;10.03;;;3.33;;
43182;SDS011;28802;38.578;-0.066;2022-07-29T15:58:11;24.90;;;4.63;;
43182;SDS011;28802;38.578;-0.066;2022-07-29T16:00:37;13.90;;;3.80;;
43182;SDS011;28802;38.578;-0.066;2022-07-29T16:03:03;10.80;;;2.97;;